createdAt,value
2018-08-30T00:00:45.349Z,21.19
2018-08-30T00:01:45.628Z,21.19
2018-08-30T00:02:45.288Z,21.19
2018-08-30T00:03:45.631Z,21.19
2018-08-30T00:04:45.325Z,21.19
2018-08-30T00:05:45.438Z,21.12
2018-08-30T00:06:45.399Z,21.12
2018-08-30T00:07:45.403Z,21.19
2018-08-30T00:08:45.380Z,21.12
2018-08-30T00:09:45.733Z,21.12
2018-08-30T00:10:45.320Z,21.19
2018-08-30T00:11:45.400Z,21.12
2018-08-30T00:12:45.470Z,21.19
2018-08-30T00:13:45.408Z,21.19
2018-08-30T00:14:45.630Z,21.19
2018-08-30T00:15:46.275Z,21.19
2018-08-30T00:16:45.536Z,21.19
2018-08-30T00:17:46.072Z,21.12
2018-08-30T00:18:45.551Z,21.12
2018-08-30T00:19:46.259Z,21.12
2018-08-30T00:20:45.379Z,21.12
2018-08-30T00:21:45.417Z,21.12
2018-08-30T00:22:45.456Z,21.12
2018-08-30T00:23:45.471Z,21.06
2018-08-30T00:24:45.411Z,21.12
2018-08-30T00:25:46.828Z,21.06
2018-08-30T00:26:45.403Z,21.06
2018-08-30T00:27:45.346Z,21.06
2018-08-30T00:28:45.498Z,21.06
2018-08-30T00:29:45.814Z,21.06
2018-08-30T00:30:45.394Z,21.06
2018-08-30T00:31:45.384Z,21
2018-08-30T00:32:45.910Z,21
2018-08-30T00:33:45.554Z,20.94
2018-08-30T00:34:45.492Z,20.94
2018-08-30T00:35:45.403Z,20.94
2018-08-30T00:36:45.667Z,20.94
2018-08-30T00:37:45.421Z,20.94
2018-08-30T00:38:45.363Z,20.88
2018-08-30T00:39:45.471Z,20.88
2018-08-30T00:40:45.412Z,20.88
2018-08-30T00:41:45.339Z,20.88
2018-08-30T00:42:45.455Z,20.88
2018-08-30T00:43:46.200Z,20.88
2018-08-30T00:44:45.804Z,20.88
2018-08-30T00:45:45.420Z,20.94
2018-08-30T00:46:45.523Z,20.94
2018-08-30T00:47:45.405Z,20.94
2018-08-30T00:48:45.415Z,20.94
2018-08-30T00:49:45.573Z,20.88
2018-08-30T00:50:45.451Z,20.88
2018-08-30T00:51:45.362Z,20.88
2018-08-30T00:52:45.554Z,20.88
2018-08-30T00:53:45.404Z,20.94
2018-08-30T00:54:45.834Z,20.94
2018-08-30T00:55:45.496Z,20.88
2018-08-30T00:56:45.466Z,20.88
2018-08-30T00:57:45.422Z,20.88
2018-08-30T00:58:45.387Z,20.81
2018-08-30T00:59:45.542Z,20.88
2018-08-30T01:00:45.457Z,20.81
2018-08-30T01:01:45.590Z,20.81
2018-08-30T01:02:45.382Z,20.88
2018-08-30T01:03:45.430Z,20.88
2018-08-30T01:04:45.399Z,20.81
2018-08-30T01:05:45.449Z,20.81
2018-08-30T01:06:45.410Z,20.81
2018-08-30T01:07:45.391Z,20.81
2018-08-30T01:08:45.466Z,20.81
2018-08-30T01:09:45.475Z,20.75
2018-08-30T01:10:45.392Z,20.81
2018-08-30T01:11:45.441Z,20.75
2018-08-30T01:12:45.479Z,20.75
2018-08-30T01:13:45.399Z,20.75
2018-08-30T01:14:45.515Z,20.69
2018-08-30T01:15:45.520Z,20.69
2018-08-30T01:16:45.420Z,20.69
2018-08-30T01:17:45.797Z,20.69
2018-08-30T01:18:45.404Z,20.69
2018-08-30T01:19:45.514Z,20.75
2018-08-30T01:20:45.758Z,20.69
2018-08-30T01:21:45.549Z,20.69
2018-08-30T01:22:45.408Z,20.56
2018-08-30T01:23:45.865Z,20.62
2018-08-30T01:24:45.490Z,20.62
2018-08-30T01:25:45.497Z,20.56
2018-08-30T01:26:45.424Z,20.56
2018-08-30T01:27:45.450Z,20.56
2018-08-30T01:28:45.440Z,20.56
2018-08-30T01:29:45.674Z,20.56
2018-08-30T01:30:45.458Z,20.56
2018-08-30T01:31:45.435Z,20.56
2018-08-30T01:32:45.400Z,20.5
2018-08-30T01:33:45.617Z,20.5
2018-08-30T01:34:45.561Z,20.5
2018-08-30T01:35:45.426Z,20.44
2018-08-30T01:36:45.513Z,20.44
2018-08-30T01:37:45.505Z,20.44
2018-08-30T01:38:45.424Z,20.44
2018-08-30T01:39:45.627Z,20.44
2018-08-30T01:40:45.541Z,20.44
2018-08-30T01:41:45.573Z,20.44
2018-08-30T01:42:45.482Z,20.44
2018-08-30T01:43:45.486Z,20.31
2018-08-30T01:44:45.540Z,20.31
2018-08-30T01:45:45.525Z,20.31
2018-08-30T01:46:45.450Z,20.25
2018-08-30T01:47:45.559Z,20.25
2018-08-30T01:48:45.433Z,20.25
2018-08-30T01:49:46.033Z,20.25
2018-08-30T01:50:45.552Z,20.19
2018-08-30T01:51:45.692Z,20.12
2018-08-30T01:52:45.509Z,20.06
2018-08-30T01:53:45.771Z,20.06
2018-08-30T01:54:45.504Z,20
2018-08-30T01:55:45.952Z,20
2018-08-30T01:56:45.469Z,20
2018-08-30T01:57:45.744Z,20
2018-08-30T01:58:45.815Z,20
2018-08-30T01:59:45.476Z,19.94
2018-08-30T02:00:45.519Z,19.94
2018-08-30T02:01:45.627Z,19.94
2018-08-30T02:02:45.491Z,19.94
2018-08-30T02:03:45.850Z,19.94
2018-08-30T02:04:45.628Z,19.94
2018-08-30T02:05:45.671Z,19.94
2018-08-30T02:06:45.611Z,19.94
2018-08-30T02:07:45.756Z,19.94
2018-08-30T02:08:45.510Z,19.87
2018-08-30T02:09:45.719Z,19.87
2018-08-30T02:10:45.968Z,19.87
2018-08-30T02:11:45.575Z,19.87
2018-08-30T02:12:45.590Z,19.87
2018-08-30T02:13:45.456Z,19.87
2018-08-30T02:14:45.564Z,19.87
2018-08-30T02:15:45.494Z,19.87
2018-08-30T02:16:45.653Z,19.94
2018-08-30T02:17:45.562Z,19.87
2018-08-30T02:18:45.479Z,19.87
2018-08-30T02:19:45.778Z,19.87
2018-08-30T02:20:45.646Z,19.81
2018-08-30T02:21:45.483Z,19.81
2018-08-30T02:22:45.514Z,19.81
2018-08-30T02:23:45.592Z,19.81
2018-08-30T02:24:45.505Z,19.81
2018-08-30T02:25:45.525Z,19.81
2018-08-30T02:26:45.528Z,19.81
2018-08-30T02:27:45.733Z,19.87
2018-08-30T02:28:45.477Z,19.87
2018-08-30T02:29:45.521Z,19.87
2018-08-30T02:30:45.735Z,19.87
2018-08-30T02:31:45.564Z,19.87
2018-08-30T02:32:45.604Z,19.94
2018-08-30T02:33:45.490Z,19.94
2018-08-30T02:34:45.527Z,19.94
2018-08-30T02:35:45.753Z,19.94
2018-08-30T02:36:45.608Z,19.94
2018-08-30T02:37:46.014Z,19.94
2018-08-30T02:38:45.495Z,19.87
2018-08-30T02:39:45.531Z,19.87
2018-08-30T02:40:45.559Z,19.87
2018-08-30T02:41:45.500Z,19.87
2018-08-30T02:42:45.762Z,19.87
2018-08-30T02:43:45.580Z,19.87
2018-08-30T02:44:45.623Z,19.81
2018-08-30T02:45:45.717Z,19.81
2018-08-30T02:46:45.492Z,19.87
2018-08-30T02:47:45.696Z,19.81
2018-08-30T02:48:45.537Z,19.81
2018-08-30T02:49:45.616Z,19.75
2018-08-30T02:50:45.520Z,19.75
2018-08-30T02:51:45.802Z,19.75
2018-08-30T02:52:45.574Z,19.69
2018-08-30T02:53:46.069Z,19.69
2018-08-30T02:54:45.540Z,19.69
2018-08-30T02:55:45.560Z,19.69
2018-08-30T02:56:45.814Z,19.69
2018-08-30T02:57:45.633Z,19.69
2018-08-30T02:58:45.654Z,19.62
2018-08-30T02:59:45.545Z,19.69
2018-08-30T03:00:45.555Z,19.69
2018-08-30T03:01:45.556Z,19.69
2018-08-30T03:02:45.604Z,19.62
2018-08-30T03:03:45.593Z,19.62
2018-08-30T03:04:45.590Z,19.69
2018-08-30T03:05:45.593Z,19.62
2018-08-30T03:06:45.692Z,19.62
2018-08-30T03:07:45.526Z,19.62
2018-08-30T03:08:45.771Z,19.62
2018-08-30T03:09:45.882Z,19.62
2018-08-30T03:10:45.887Z,19.56
2018-08-30T03:11:45.525Z,19.5
2018-08-30T03:12:45.833Z,19.56
2018-08-30T03:13:45.732Z,19.56
2018-08-30T03:14:46.090Z,19.56
2018-08-30T03:15:45.806Z,19.56
2018-08-30T03:16:45.819Z,19.56
2018-08-30T03:17:45.561Z,19.56
2018-08-30T03:18:45.550Z,19.56
2018-08-30T03:19:45.873Z,19.56
2018-08-30T03:20:45.617Z,19.56
2018-08-30T03:21:45.562Z,19.5
2018-08-30T03:22:45.754Z,19.5
2018-08-30T03:23:45.706Z,19.5
2018-08-30T03:24:45.640Z,19.5
2018-08-30T03:25:45.583Z,19.5
2018-08-30T03:26:45.570Z,19.5
2018-08-30T03:27:45.630Z,19.44
2018-08-30T03:28:45.559Z,19.5
2018-08-30T03:29:45.566Z,19.44
2018-08-30T03:30:46.547Z,19.44
2018-08-30T03:31:45.659Z,19.5
2018-08-30T03:32:45.645Z,19.5
2018-08-30T03:33:45.627Z,19.44
2018-08-30T03:34:45.589Z,19.5
2018-08-30T03:35:45.569Z,19.44
2018-08-30T03:36:45.604Z,19.44
2018-08-30T03:37:45.725Z,19.37
2018-08-30T03:38:45.590Z,19.37
2018-08-30T03:39:45.570Z,19.44
2018-08-30T03:40:45.594Z,19.31
2018-08-30T03:41:46.530Z,19.31
2018-08-30T03:42:45.601Z,19.31
2018-08-30T03:43:45.631Z,19.25
2018-08-30T03:44:45.621Z,19.25
2018-08-30T03:45:45.573Z,19.25
2018-08-30T03:46:45.894Z,19.25
2018-08-30T03:47:45.578Z,19.19
2018-08-30T03:48:45.612Z,19.12
2018-08-30T03:49:45.590Z,19.12
2018-08-30T03:50:45.607Z,19.12
2018-08-30T03:51:45.603Z,19.06
2018-08-30T03:52:45.647Z,19
2018-08-30T03:53:45.604Z,19
2018-08-30T03:54:45.620Z,19
2018-08-30T03:55:45.657Z,19.06
2018-08-30T03:56:45.595Z,19
2018-08-30T03:57:45.619Z,19
2018-08-30T03:58:45.779Z,18.94
2018-08-30T03:59:45.624Z,18.94
2018-08-30T04:00:45.594Z,18.94
2018-08-30T04:01:45.612Z,18.87
2018-08-30T04:02:45.673Z,18.87
2018-08-30T04:03:45.692Z,18.87
2018-08-30T04:04:45.802Z,18.81
2018-08-30T04:05:45.802Z,18.81
2018-08-30T04:06:45.665Z,18.81
2018-08-30T04:07:45.811Z,18.75
2018-08-30T04:08:45.639Z,18.75
2018-08-30T04:09:46.040Z,18.75
2018-08-30T04:10:45.828Z,18.75
2018-08-30T04:11:45.626Z,18.69
2018-08-30T04:12:45.657Z,18.75
2018-08-30T04:13:45.660Z,18.69
2018-08-30T04:14:45.681Z,18.69
2018-08-30T04:15:45.786Z,18.69
2018-08-30T04:16:45.698Z,18.75
2018-08-30T04:17:45.668Z,18.75
2018-08-30T04:18:45.750Z,18.69
2018-08-30T04:19:45.860Z,18.69
2018-08-30T04:20:45.662Z,18.69
2018-08-30T04:21:45.975Z,18.69
2018-08-30T04:22:45.781Z,18.62
2018-08-30T04:23:45.670Z,18.69
2018-08-30T04:24:45.667Z,18.62
2018-08-30T04:25:45.651Z,18.62
2018-08-30T04:26:45.712Z,18.69
2018-08-30T04:27:45.691Z,18.69
2018-08-30T04:28:45.643Z,18.69
2018-08-30T04:29:45.671Z,18.69
2018-08-30T04:30:45.793Z,18.62
2018-08-30T04:31:45.785Z,18.62
2018-08-30T04:32:45.654Z,18.62
2018-08-30T04:33:45.838Z,18.62
2018-08-30T04:34:45.642Z,18.62
2018-08-30T04:35:45.970Z,18.56
2018-08-30T04:36:45.680Z,18.56
2018-08-30T04:37:45.676Z,18.56
2018-08-30T04:38:45.783Z,18.56
2018-08-30T04:39:45.635Z,18.56
2018-08-30T04:40:45.819Z,18.56
2018-08-30T04:41:45.668Z,18.5
2018-08-30T04:42:46.351Z,18.56
2018-08-30T04:43:46.334Z,18.56
2018-08-30T04:44:45.684Z,18.56
2018-08-30T04:45:45.805Z,18.56
2018-08-30T04:46:45.754Z,18.56
2018-08-30T04:47:45.655Z,18.56
2018-08-30T04:48:45.735Z,18.5
2018-08-30T04:49:45.976Z,18.5
2018-08-30T04:50:45.753Z,18.44
2018-08-30T04:51:45.870Z,18.44
2018-08-30T04:52:45.826Z,18.44
2018-08-30T04:53:45.834Z,18.44
2018-08-30T04:54:46.131Z,18.37
2018-08-30T04:55:45.760Z,18.44
2018-08-30T04:56:46.702Z,18.44
2018-08-30T04:57:45.919Z,18.37
2018-08-30T04:58:45.824Z,18.37
2018-08-30T04:59:46.004Z,18.37
2018-08-30T05:00:45.682Z,18.37
2018-08-30T05:01:46.708Z,18.37
2018-08-30T05:02:45.690Z,18.37
2018-08-30T05:03:45.697Z,18.37
2018-08-30T05:04:45.718Z,18.37
2018-08-30T05:05:45.681Z,18.44
2018-08-30T05:06:45.743Z,18.44
2018-08-30T05:07:45.682Z,18.37
2018-08-30T05:08:45.731Z,18.37
2018-08-30T05:09:45.661Z,18.31
2018-08-30T05:10:45.652Z,18.37
2018-08-30T05:11:45.778Z,18.31
2018-08-30T05:12:45.707Z,18.31
2018-08-30T05:13:45.676Z,18.31
2018-08-30T05:14:45.703Z,18.31
2018-08-30T05:15:45.741Z,18.31
2018-08-30T05:16:45.712Z,18.25
2018-08-30T05:17:45.739Z,18.31
2018-08-30T05:18:45.666Z,18.25
2018-08-30T05:19:45.736Z,18.25
2018-08-30T05:20:45.696Z,18.31
2018-08-30T05:21:45.699Z,18.31
2018-08-30T05:22:45.861Z,18.31
2018-08-30T05:23:45.783Z,18.31
2018-08-30T05:24:45.700Z,18.25
2018-08-30T05:25:45.812Z,18.25
2018-08-30T05:26:46.007Z,18.31
2018-08-30T05:27:45.719Z,18.31
2018-08-30T05:28:45.728Z,18.31
2018-08-30T05:29:46.426Z,18.31
2018-08-30T05:30:46.140Z,18.31
2018-08-30T05:31:45.782Z,18.31
2018-08-30T05:32:45.732Z,18.31
2018-08-30T05:33:46.376Z,18.31
2018-08-30T05:34:45.891Z,18.37
2018-08-30T05:35:46.633Z,18.37
2018-08-30T05:36:45.747Z,18.37
2018-08-30T05:37:46.271Z,18.37
2018-08-30T05:38:45.936Z,18.37
2018-08-30T05:39:46.214Z,18.44
2018-08-30T05:40:45.801Z,18.37
2018-08-30T05:41:45.698Z,18.44
2018-08-30T05:42:45.723Z,18.44
2018-08-30T05:43:45.730Z,18.5
2018-08-30T05:44:47.014Z,18.5
2018-08-30T05:45:46.188Z,18.5
2018-08-30T05:46:45.792Z,18.5
2018-08-30T05:47:45.907Z,18.5
2018-08-30T05:48:45.770Z,18.5
2018-08-30T05:49:45.817Z,18.5
2018-08-30T05:50:46.231Z,18.5
2018-08-30T05:51:45.978Z,18.5
2018-08-30T05:52:45.779Z,18.5
2018-08-30T05:53:45.932Z,18.56
2018-08-30T05:54:45.741Z,18.56
2018-08-30T05:55:46.021Z,18.5
2018-08-30T05:56:46.596Z,18.56
2018-08-30T05:57:45.862Z,18.44
2018-08-30T05:58:45.990Z,18.5
2018-08-30T05:59:45.836Z,18.5
2018-08-30T06:00:45.743Z,18.5
2018-08-30T06:01:45.867Z,18.5
2018-08-30T06:02:45.763Z,18.5
2018-08-30T06:03:45.826Z,18.5
2018-08-30T06:04:46.184Z,18.56
2018-08-30T06:05:45.908Z,18.44
2018-08-30T06:06:45.757Z,18.5
2018-08-30T06:07:45.832Z,18.5
2018-08-30T06:08:46.131Z,18.5
2018-08-30T06:09:45.803Z,18.5
2018-08-30T06:10:46.086Z,18.5
2018-08-30T06:11:45.758Z,18.44
2018-08-30T06:12:46.113Z,18.44
2018-08-30T06:13:45.918Z,18.5
2018-08-30T06:14:46.264Z,18.56
2018-08-30T06:15:45.818Z,18.56
2018-08-30T06:16:45.805Z,18.56
2018-08-30T06:17:45.763Z,18.56
2018-08-30T06:18:45.844Z,18.56
2018-08-30T06:19:45.855Z,18.56
2018-08-30T06:20:45.853Z,18.56
2018-08-30T06:21:46.077Z,18.56
2018-08-30T06:22:45.801Z,18.56
2018-08-30T06:23:45.941Z,18.56
2018-08-30T06:24:45.824Z,18.56
2018-08-30T06:25:45.795Z,18.56
2018-08-30T06:26:46.356Z,18.56
2018-08-30T06:27:45.785Z,18.56
2018-08-30T06:28:45.822Z,18.56
2018-08-30T06:29:45.804Z,18.56
2018-08-30T06:30:45.865Z,18.56
2018-08-30T06:31:45.821Z,18.5
2018-08-30T06:32:46.210Z,18.56
2018-08-30T06:33:45.836Z,18.56
2018-08-30T06:34:47.287Z,18.56
2018-08-30T06:35:45.852Z,18.56
2018-08-30T06:36:45.832Z,18.56
2018-08-30T06:37:45.816Z,18.62
2018-08-30T06:38:47.141Z,18.62
2018-08-30T06:39:45.814Z,18.56
2018-08-30T06:40:45.818Z,18.56
2018-08-30T06:41:45.795Z,18.56
2018-08-30T06:42:45.853Z,18.5
2018-08-30T06:43:45.827Z,18.56
2018-08-30T06:44:45.839Z,18.5
2018-08-30T06:45:46.889Z,18.5
2018-08-30T06:46:45.824Z,18.56
2018-08-30T06:47:45.898Z,18.56
2018-08-30T06:48:46.005Z,18.56
2018-08-30T06:49:45.817Z,18.56
2018-08-30T06:50:46.074Z,18.56
2018-08-30T06:51:45.903Z,18.62
2018-08-30T06:52:45.917Z,18.62
2018-08-30T06:53:46.131Z,18.62
2018-08-30T06:54:45.876Z,18.69
2018-08-30T06:55:46.145Z,18.62
2018-08-30T06:56:45.832Z,18.62
2018-08-30T06:57:46.383Z,18.56
2018-08-30T06:58:45.824Z,18.56
2018-08-30T06:59:45.824Z,18.62
2018-08-30T07:00:45.865Z,18.56
2018-08-30T07:01:45.904Z,18.62
2018-08-30T07:02:46.116Z,18.62
2018-08-30T07:03:45.903Z,18.69
2018-08-30T07:04:46.680Z,18.62
2018-08-30T07:05:45.841Z,18.69
2018-08-30T07:06:46.125Z,18.69
2018-08-30T07:07:45.943Z,18.69
2018-08-30T07:08:45.861Z,18.75
2018-08-30T07:09:45.956Z,18.81
2018-08-30T07:10:45.964Z,18.81
2018-08-30T07:11:45.879Z,18.81
2018-08-30T07:12:45.862Z,18.81
2018-08-30T07:13:45.887Z,18.81
2018-08-30T07:14:47.175Z,18.81
2018-08-30T07:15:46.222Z,18.87
2018-08-30T07:16:45.861Z,18.87
2018-08-30T07:17:45.866Z,18.94
2018-08-30T07:18:46.200Z,18.94
2018-08-30T07:19:46.198Z,18.94
2018-08-30T07:20:45.911Z,19
2018-08-30T07:21:45.927Z,19
2018-08-30T07:22:46.121Z,19.06
2018-08-30T07:23:45.926Z,19.06
2018-08-30T07:24:45.879Z,19.12
2018-08-30T07:25:46.100Z,19.06
2018-08-30T07:26:45.897Z,19.06
2018-08-30T07:27:46.459Z,19.06
2018-08-30T07:28:45.994Z,19.12
2018-08-30T07:29:46.175Z,19.19
2018-08-30T07:30:46.096Z,19.25
2018-08-30T07:31:45.910Z,19.25
2018-08-30T07:32:46.075Z,19.25
2018-08-30T07:33:45.931Z,19.25
2018-08-30T07:34:47.742Z,19.25
2018-08-30T07:35:45.903Z,19.31
2018-08-30T07:36:45.997Z,19.37
2018-08-30T07:37:46.248Z,19.44
2018-08-30T07:38:45.873Z,19.44
2018-08-30T07:39:45.896Z,19.44
2018-08-30T07:40:45.922Z,19.5
2018-08-30T07:41:45.893Z,19.5
2018-08-30T07:42:45.909Z,19.5
2018-08-30T07:43:46.002Z,19.56
2018-08-30T07:44:45.887Z,19.56
2018-08-30T07:45:45.917Z,19.56
2018-08-30T07:46:45.948Z,19.56
2018-08-30T07:47:45.912Z,19.5
2018-08-30T07:48:45.928Z,19.5
2018-08-30T07:49:45.937Z,19.5
2018-08-30T07:50:46.295Z,19.5
2018-08-30T07:51:45.956Z,19.56
2018-08-30T07:52:46.092Z,19.56
2018-08-30T07:53:45.933Z,19.56
2018-08-30T07:54:46.033Z,19.56
2018-08-30T07:55:46.002Z,19.56
2018-08-30T07:56:45.879Z,19.56
2018-08-30T07:57:45.941Z,19.5
2018-08-30T07:58:45.901Z,19.5
2018-08-30T07:59:45.898Z,19.56
2018-08-30T08:00:45.874Z,19.5
2018-08-30T08:01:46.060Z,19.56
2018-08-30T08:02:46.293Z,19.56
2018-08-30T08:03:45.945Z,19.56
2018-08-30T08:04:45.891Z,19.56
2018-08-30T08:05:46.023Z,19.5
2018-08-30T08:06:46.307Z,19.5
2018-08-30T08:07:45.943Z,19.5
2018-08-30T08:08:45.910Z,19.44
2018-08-30T08:09:45.913Z,19.44
2018-08-30T08:10:45.925Z,19.44
2018-08-30T08:11:46.445Z,19.5
2018-08-30T08:12:46.837Z,19.5
2018-08-30T08:13:46.500Z,19.44
2018-08-30T08:14:46.208Z,19.5
2018-08-30T08:15:45.929Z,19.5
2018-08-30T08:16:45.928Z,19.56
2018-08-30T08:17:46.514Z,19.56
2018-08-30T08:18:45.939Z,19.5
2018-08-30T08:19:46.028Z,19.5
2018-08-30T08:20:46.037Z,19.5
2018-08-30T08:21:46.081Z,19.56
2018-08-30T08:22:45.955Z,19.5
2018-08-30T08:23:45.963Z,19.5
2018-08-30T08:24:46.345Z,19.5
2018-08-30T08:25:46.134Z,19.56
2018-08-30T08:26:45.939Z,19.56
2018-08-30T08:27:46.027Z,19.56
2018-08-30T08:28:46.563Z,19.62
2018-08-30T08:29:45.958Z,19.62
2018-08-30T08:30:46.107Z,19.69
2018-08-30T08:31:46.045Z,19.62
2018-08-30T08:32:46.119Z,19.62
2018-08-30T08:33:46.181Z,19.62
2018-08-30T08:34:46.063Z,19.62
2018-08-30T08:35:46.120Z,19.56
2018-08-30T08:36:46.137Z,19.56
2018-08-30T08:37:46.137Z,19.56
2018-08-30T08:38:46.338Z,19.56
2018-08-30T08:39:46.015Z,19.5
2018-08-30T08:40:46.146Z,19.56
2018-08-30T08:41:46.000Z,19.62
2018-08-30T08:42:46.281Z,19.62
2018-08-30T08:43:45.989Z,19.69
2018-08-30T08:44:46.149Z,19.69
2018-08-30T08:45:46.204Z,19.69
2018-08-30T08:46:46.103Z,19.69
2018-08-30T08:47:46.773Z,19.69
2018-08-30T08:48:46.007Z,19.75
2018-08-30T08:49:46.109Z,19.75
2018-08-30T08:50:45.993Z,19.75
2018-08-30T08:51:46.092Z,19.81
2018-08-30T08:52:46.149Z,19.81
2018-08-30T08:53:47.595Z,19.87
2018-08-30T08:54:46.151Z,19.87
2018-08-30T08:55:46.108Z,19.94
2018-08-30T08:56:45.949Z,19.94
2018-08-30T08:57:46.284Z,19.94
2018-08-30T08:58:46.759Z,19.87
2018-08-30T08:59:45.970Z,19.87
2018-08-30T09:00:46.113Z,19.87
2018-08-30T09:01:46.147Z,19.87
2018-08-30T09:02:46.432Z,19.94
2018-08-30T09:03:46.396Z,19.87
2018-08-30T09:04:46.021Z,19.87
2018-08-30T09:05:46.073Z,19.87
2018-08-30T09:06:45.978Z,19.81
2018-08-30T09:07:47.046Z,19.87
2018-08-30T09:08:46.069Z,19.81
2018-08-30T09:09:46.069Z,19.87
2018-08-30T09:10:45.985Z,19.94
2018-08-30T09:11:46.057Z,19.94
2018-08-30T09:12:46.073Z,19.94
2018-08-30T09:13:46.105Z,19.94
2018-08-30T09:14:46.047Z,19.94
2018-08-30T09:15:46.019Z,19.94
2018-08-30T09:16:46.052Z,19.94
2018-08-30T09:17:46.025Z,19.94
2018-08-30T09:18:46.097Z,19.94
2018-08-30T09:19:46.046Z,19.87
2018-08-30T09:20:46.073Z,20
2018-08-30T09:21:46.099Z,20
2018-08-30T09:22:46.074Z,20
2018-08-30T09:23:46.080Z,20
2018-08-30T09:24:46.261Z,20
2018-08-30T09:25:46.047Z,19.94
2018-08-30T09:26:47.105Z,20
2018-08-30T09:27:46.269Z,20
2018-08-30T09:28:45.991Z,19.94
2018-08-30T09:29:46.029Z,19.94
2018-08-30T09:30:46.103Z,19.94
2018-08-30T09:31:46.106Z,19.94
2018-08-30T09:32:46.238Z,19.87
2018-08-30T09:33:46.717Z,19.87
2018-08-30T09:34:46.141Z,19.87
2018-08-30T09:35:46.130Z,19.87
2018-08-30T09:36:46.001Z,19.81
2018-08-30T09:37:46.178Z,19.81
2018-08-30T09:38:46.151Z,19.75
2018-08-30T09:39:46.431Z,19.81
2018-08-30T09:40:46.348Z,19.69
2018-08-30T09:41:46.087Z,19.69
2018-08-30T09:42:46.145Z,19.75
2018-08-30T09:43:46.524Z,19.81
2018-08-30T09:44:46.298Z,19.75
2018-08-30T09:45:46.320Z,19.81
2018-08-30T09:46:46.150Z,19.75
2018-08-30T09:47:46.290Z,19.81
2018-08-30T09:48:46.295Z,19.75
2018-08-30T09:49:47.701Z,19.75
2018-08-30T09:50:46.017Z,19.75
2018-08-30T09:51:46.246Z,19.81
2018-08-30T09:52:46.200Z,19.75
2018-08-30T09:53:46.070Z,19.69
2018-08-30T09:54:46.172Z,19.75
2018-08-30T09:55:47.291Z,19.75
2018-08-30T09:56:46.981Z,19.75
2018-08-30T09:57:46.821Z,19.81
2018-08-30T09:58:46.170Z,19.81
2018-08-30T09:59:47.984Z,19.87
2018-08-30T10:00:46.428Z,19.87
2018-08-30T10:01:46.161Z,19.87
2018-08-30T10:02:46.168Z,19.87
2018-08-30T10:03:46.504Z,19.87
2018-08-30T10:04:47.114Z,19.87
2018-08-30T10:05:46.429Z,19.87
2018-08-30T10:06:46.803Z,19.87
2018-08-30T10:07:48.765Z,19.87
2018-08-30T10:08:46.047Z,19.87
2018-08-30T10:09:46.186Z,19.87
2018-08-30T10:10:46.470Z,19.87
2018-08-30T10:11:46.349Z,19.87
2018-08-30T10:12:46.210Z,19.87
2018-08-30T10:13:46.100Z,19.87
2018-08-30T10:14:46.110Z,19.94
2018-08-30T10:15:46.610Z,20
2018-08-30T10:16:46.034Z,20
2018-08-30T10:17:46.048Z,20
2018-08-30T10:18:46.088Z,19.94
2018-08-30T10:19:46.076Z,20
2018-08-30T10:20:46.393Z,19.94
2018-08-30T10:21:46.355Z,20
2018-08-30T10:22:46.242Z,20
2018-08-30T10:23:46.072Z,20
2018-08-30T10:24:46.151Z,20
2018-08-30T10:25:46.397Z,20.06
2018-08-30T10:26:46.174Z,20.19
2018-08-30T10:27:46.057Z,20.25
2018-08-30T10:28:46.094Z,20.25
2018-08-30T10:29:46.101Z,20.31
2018-08-30T10:30:46.078Z,20.31
2018-08-30T10:31:46.097Z,20.37
2018-08-30T10:32:46.112Z,20.44
2018-08-30T10:33:46.079Z,20.5
2018-08-30T10:34:46.083Z,20.5
2018-08-30T10:35:46.074Z,20.56
2018-08-30T10:36:46.122Z,20.56
2018-08-30T10:37:46.157Z,20.62
2018-08-30T10:38:46.095Z,20.62
2018-08-30T10:39:46.114Z,20.62
2018-08-30T10:40:46.101Z,20.69
2018-08-30T10:41:46.199Z,20.62
2018-08-30T10:42:46.390Z,20.69
2018-08-30T10:43:46.183Z,20.69
2018-08-30T10:44:46.189Z,20.69
2018-08-30T10:45:47.376Z,20.69
2018-08-30T10:46:46.430Z,20.62
2018-08-30T10:47:46.478Z,20.62
2018-08-30T10:48:46.323Z,20.62
2018-08-30T10:49:46.722Z,20.56
2018-08-30T10:50:46.421Z,20.56
2018-08-30T10:51:46.560Z,20.62
2018-08-30T10:52:46.382Z,20.62
2018-08-30T10:53:46.300Z,20.56
2018-08-30T10:54:46.260Z,20.56
2018-08-30T10:55:46.525Z,20.5
2018-08-30T10:56:46.248Z,20.5
2018-08-30T10:57:46.298Z,20.5
2018-08-30T10:58:46.444Z,20.5
2018-08-30T10:59:46.332Z,20.56
2018-08-30T11:00:46.191Z,20.62
2018-08-30T11:01:46.687Z,20.62
2018-08-30T11:02:46.243Z,20.62
2018-08-30T11:03:47.096Z,20.69
2018-08-30T11:04:46.150Z,20.75
2018-08-30T11:05:46.235Z,20.75
2018-08-30T11:06:46.141Z,20.81
2018-08-30T11:07:46.384Z,20.88
2018-08-30T11:08:46.302Z,20.88
2018-08-30T11:09:46.316Z,20.94
2018-08-30T11:10:46.282Z,20.94
2018-08-30T11:11:46.259Z,20.94
2018-08-30T11:12:46.877Z,21
2018-08-30T11:13:46.481Z,20.94
2018-08-30T11:14:46.104Z,20.88
2018-08-30T11:15:46.247Z,20.88
2018-08-30T11:16:46.258Z,20.88
2018-08-30T11:17:46.367Z,20.94
2018-08-30T11:18:46.631Z,20.88
2018-08-30T11:19:46.240Z,20.88
2018-08-30T11:20:46.174Z,20.94
2018-08-30T11:21:46.141Z,20.94
2018-08-30T11:22:46.319Z,20.94
2018-08-30T11:23:46.346Z,21
2018-08-30T11:24:46.192Z,21.06
2018-08-30T11:25:46.797Z,21.12
2018-08-30T11:26:46.481Z,21.19
2018-08-30T11:27:46.260Z,21.25
2018-08-30T11:28:46.435Z,21.31
2018-08-30T11:29:46.460Z,21.19
2018-08-30T11:30:46.948Z,21.06
2018-08-30T11:31:46.283Z,21.12
2018-08-30T11:32:46.239Z,21.12
2018-08-30T11:33:46.808Z,21.19
2018-08-30T11:34:46.829Z,21.12
2018-08-30T11:35:46.181Z,21.19
2018-08-30T11:36:46.277Z,21.25
2018-08-30T11:37:47.325Z,21.19
2018-08-30T11:38:46.319Z,21.25
2018-08-30T11:39:46.567Z,21.25
2018-08-30T11:40:46.507Z,21.19
2018-08-30T11:41:48.917Z,21.12
2018-08-30T11:42:46.178Z,21.06
2018-08-30T11:43:46.383Z,21.12
2018-08-30T11:44:46.219Z,21.19
2018-08-30T11:45:46.208Z,21.12
2018-08-30T11:46:46.243Z,21.25
2018-08-30T11:47:46.275Z,21.37
2018-08-30T11:48:46.476Z,21.37
2018-08-30T11:49:46.231Z,21.44
2018-08-30T11:50:46.372Z,21.5
2018-08-30T11:51:46.344Z,21.56
2018-08-30T11:52:47.443Z,21.62
2018-08-30T11:53:46.298Z,21.62
2018-08-30T11:54:46.403Z,21.75
2018-08-30T11:56:46.236Z,21.81
2018-08-30T11:57:46.395Z,21.94
2018-08-30T11:58:46.193Z,21.94
2018-08-30T11:59:46.214Z,22
2018-08-30T12:00:46.638Z,22
2018-08-30T12:01:46.275Z,22
2018-08-30T12:02:46.309Z,22
2018-08-30T12:03:46.357Z,22.06
2018-08-30T12:04:46.400Z,22.06
2018-08-30T12:05:46.237Z,22.06
2018-08-30T12:06:46.785Z,22
2018-08-30T12:07:46.478Z,21.94
2018-08-30T12:08:46.388Z,21.87
2018-08-30T12:09:46.237Z,21.81
2018-08-30T12:10:47.630Z,21.81
2018-08-30T12:11:47.539Z,21.87
2018-08-30T12:12:46.413Z,21.87
2018-08-30T12:13:46.322Z,21.94
2018-08-30T12:14:46.233Z,21.81
2018-08-30T12:15:46.260Z,21.81
2018-08-30T12:16:46.303Z,21.87
2018-08-30T12:17:46.270Z,21.87
2018-08-30T12:18:47.066Z,21.87
2018-08-30T12:19:46.391Z,21.87
2018-08-30T12:20:48.251Z,21.87
2018-08-30T12:21:46.261Z,21.87
2018-08-30T12:22:46.818Z,21.87
2018-08-30T12:23:46.363Z,21.87
2018-08-30T12:24:46.329Z,21.94
2018-08-30T12:25:46.375Z,22.06
2018-08-30T12:26:46.321Z,22
2018-08-30T12:27:46.404Z,22
2018-08-30T12:28:48.344Z,21.94
2018-08-30T12:29:46.460Z,21.94
2018-08-30T12:30:46.644Z,22
2018-08-30T12:31:47.122Z,21.94
2018-08-30T12:32:46.821Z,22
2018-08-30T12:33:46.953Z,22.06
2018-08-30T12:34:47.041Z,22.06
2018-08-30T12:35:48.665Z,22.06
2018-08-30T12:36:46.994Z,22.13
2018-08-30T12:37:46.529Z,22.19
2018-08-30T12:38:46.588Z,22.19
2018-08-30T12:39:47.895Z,22.13
2018-08-30T12:40:47.063Z,22.13
2018-08-30T12:41:46.673Z,22.06
2018-08-30T12:42:47.187Z,22.06
2018-08-30T12:43:47.298Z,22
2018-08-30T12:44:46.947Z,22
2018-08-30T12:45:47.324Z,21.94
2018-08-30T12:46:46.739Z,22
2018-08-30T12:47:46.808Z,22
2018-08-30T12:48:46.890Z,22
2018-08-30T12:49:46.821Z,22
2018-08-30T12:50:48.483Z,21.94
2018-08-30T12:51:48.291Z,21.94
2018-08-30T12:52:48.094Z,22
2018-08-30T12:53:48.410Z,22
2018-08-30T12:54:47.128Z,22.06
2018-08-30T12:55:48.362Z,22.13
2018-08-30T12:56:48.264Z,22.19
2018-08-30T12:57:48.406Z,22.25
2018-08-30T12:58:48.332Z,22.31
2018-08-30T12:59:48.500Z,22.31
2018-08-30T13:00:47.660Z,22.37